KGAO

Details ICAO KGAO
Name SOUTH LAFOURCHE
Region United States
Timezone America/Chicago (UTC-5.0)
Plans Departing 5
Arriving 6
Stats Elevation 1 ft / 0 m (AMSL)
Location 29.444800° -90.261100°
Runways 1
Magnetic Variation 0.780° W
Sunrise 2018-10-18 12:05:31 UTC / 2018-10-18 07:05:31 Local
Sunset 2018-10-18 23:29:07 UTC / 2018-10-18 18:29:07 Local
Advertisement - Login to hide

Runways

ID Width Length Bearing (true/mag) Surface Threshold Overrun Markings Lighting
18 75 ft / 23 m 3,814 ft / 1,162 m 180.58° / 181.36° ASPHALT 0 ft / 0 m 0 ft / 0 m APP EDGE THRESHOLD REIL-OMNI
36 75 ft / 23 m 3,814 ft / 1,162 m 0.58° / 1.36° ASPHALT 0 ft / 0 m 0 ft / 0 m APP EDGE THRESHOLD

Map

Weather


0- 5 10 15 20 25 30 35+ Temperature / °C

Clouds and Precipitation
Forecast for 2018-10-19 00:00 UTC. Updated 38 minutes ago

Ground ~20,000 ft ~40,000 ft Winds

METAR

KGAO 182155Z AUTO 04009G15KT 020V080 10SM CLR 26/16 A3018 RMK AO2 T02600155

TAF

Not found

Frequencies

Unicom 123.00 MHz UNICOM CTAF
Recorded 118.17 MHz AWOS 3
Approach 123.85 MHz NEW ORLEANS APP/DEP
Warning: Do not use this data for real-world aviation or navigation. No guarantee of current accuracy is given.